createdAt,value
2019-05-16T00:03:58.836Z,41.50
2019-05-16T00:09:05.324Z,43.20
2019-05-16T00:14:11.495Z,42.80
2019-05-16T00:19:18.087Z,43.50
2019-05-16T00:24:23.272Z,43.70
2019-05-16T00:29:28.165Z,43.40
2019-05-16T00:34:33.164Z,42.20
2019-05-16T00:39:38.836Z,42.20
2019-05-16T00:44:44.455Z,43.10
2019-05-16T00:49:49.280Z,42.90
2019-05-16T00:54:54.244Z,43.60
2019-05-16T00:59:59.513Z,45.10
2019-05-16T01:05:04.520Z,46.70
2019-05-16T01:10:09.594Z,46.70
2019-05-16T01:15:18.184Z,45.90
2019-05-16T01:20:22.598Z,45.60
2019-05-16T01:25:28.221Z,43.50
2019-05-16T01:30:33.409Z,45.40
2019-05-16T01:35:38.667Z,45.40
2019-05-16T01:40:44.157Z,44.50
2019-05-16T01:45:49.049Z,46.10
2019-05-16T01:50:54.025Z,46.70
2019-05-16T01:55:58.137Z,46.30
2019-05-16T02:01:12.139Z,46.10
2019-05-16T02:06:09.385Z,45.70
2019-05-16T02:11:13.544Z,47.40
2019-05-16T02:16:18.697Z,47.40
2019-05-16T02:21:23.234Z,49.70
2019-05-16T02:26:28.330Z,50.10
2019-05-16T02:31:32.474Z,50.90
2019-05-16T02:36:36.738Z,49.40
2019-05-16T02:41:45.616Z,51.00
2019-05-16T02:46:47.196Z,50.10
2019-05-16T02:51:51.375Z,50.10
2019-05-16T02:56:55.371Z,50.10
2019-05-16T03:02:00.869Z,50.20
2019-05-16T03:07:05.708Z,51.30
2019-05-16T03:12:10.735Z,49.80
2019-05-16T03:17:21.215Z,50.40
2019-05-16T03:22:27.704Z,50.70
2019-05-16T03:27:32.898Z,50.60
2019-05-16T03:32:37.586Z,51.20
2019-05-16T03:37:55.213Z,51.70
2019-05-16T03:42:51.802Z,51.50
2019-05-16T03:47:56.680Z,51.10
2019-05-16T03:53:01.968Z,52.10
2019-05-16T03:58:06.823Z,53.10
2019-05-16T04:03:11.827Z,53.60
2019-05-16T04:08:23.145Z,53.00
2019-05-16T04:13:25.218Z,54.50
2019-05-16T04:18:32.280Z,53.40
2019-05-16T04:23:41.845Z,52.40
2019-05-16T04:28:46.436Z,52.00
2019-05-16T04:33:51.827Z,53.00
2019-05-16T04:38:57.104Z,53.20
2019-05-16T04:44:04.887Z,53.60
2019-05-16T04:49:11.274Z,54.90
2019-05-16T04:54:16.717Z,54.60
2019-05-16T04:59:21.918Z,53.90
2019-05-16T05:04:30.271Z,54.30
2019-05-16T05:09:34.415Z,51.90
2019-05-16T05:14:41.641Z,51.00
2019-05-16T05:19:47.002Z,51.70
2019-05-16T05:24:51.939Z,51.70
2019-05-16T05:30:06.989Z,52.20
2019-05-16T05:35:12.484Z,53.30
2019-05-16T05:40:20.081Z,50.20
2019-05-16T05:45:24.334Z,50.00
2019-05-16T05:50:30.749Z,48.20
2019-05-16T05:55:34.338Z,48.50
2019-05-16T06:00:40.537Z,48.20
2019-05-16T06:05:44.719Z,45.00
2019-05-16T06:10:50.411Z,45.50
2019-05-16T06:15:55.634Z,44.70
2019-05-16T06:21:00.509Z,44.90
2019-05-16T06:26:05.074Z,42.10
2019-05-16T06:31:13.848Z,41.20
2019-05-16T06:36:16.750Z,41.30
2019-05-16T06:41:21.655Z,42.30
2019-05-16T06:46:26.180Z,39.10
2019-05-16T06:51:30.796Z,39.50
2019-05-16T06:56:34.305Z,40.10
2019-05-16T07:01:40.458Z,39.50
2019-05-16T07:06:58.116Z,38.60
2019-05-16T07:11:51.893Z,34.40
2019-05-16T07:16:56.450Z,34.40
2019-05-16T07:22:01.205Z,34.80
2019-05-16T07:27:09.004Z,36.20
2019-05-16T07:32:13.022Z,34.30
2019-05-16T07:37:20.078Z,33.90
2019-05-16T07:42:25.714Z,36.20
2019-05-16T07:47:31.182Z,34.60
2019-05-16T07:52:37.150Z,34.10
2019-05-16T07:57:42.344Z,35.60
2019-05-16T08:02:50.411Z,32.50
2019-05-16T08:07:55.149Z,30.80
2019-05-16T08:13:03.426Z,30.00
2019-05-16T08:18:10.894Z,31.20
2019-05-16T08:23:15.642Z,32.30
2019-05-16T08:28:21.756Z,27.80
2019-05-16T08:33:27.843Z,29.00
2019-05-16T08:38:33.190Z,27.70
2019-05-16T08:43:41.127Z,29.20
2019-05-16T08:48:46.175Z,29.50
2019-05-16T08:53:52.093Z,29.40
2019-05-16T08:58:57.245Z,30.20
2019-05-16T09:04:03.284Z,28.70
2019-05-16T09:09:26.497Z,26.80
2019-05-16T09:14:17.196Z,28.90
2019-05-16T09:19:22.855Z,27.80
2019-05-16T09:24:29.551Z,27.20
2019-05-16T09:29:36.654Z,26.90
2019-05-16T09:34:41.650Z,29.40
2019-05-16T09:39:48.109Z,30.00
2019-05-16T09:44:53.969Z,25.50
2019-05-16T09:49:59.430Z,27.20
2019-05-16T09:55:07.110Z,26.10
2019-05-16T10:00:17.871Z,24.30
2019-05-16T10:05:26.736Z,27.20
2019-05-16T10:10:31.601Z,26.40
2019-05-16T10:15:37.749Z,26.90
2019-05-16T10:20:43.252Z,26.10
2019-05-16T10:25:50.098Z,27.50
2019-05-16T10:30:56.904Z,24.10
2019-05-16T10:36:02.992Z,25.10
2019-05-16T10:41:08.893Z,28.00
2019-05-16T10:46:13.077Z,30.40
2019-05-16T10:51:18.096Z,26.70
2019-05-16T10:56:22.791Z,26.30
2019-05-16T11:01:30.627Z,26.50
2019-05-16T11:06:34.205Z,25.80
2019-05-16T11:11:38.508Z,24.90
2019-05-16T11:16:42.935Z,28.10
2019-05-16T11:21:49.039Z,25.70
2019-05-16T11:26:53.934Z,25.20
2019-05-16T11:31:58.768Z,29.20
2019-05-16T11:37:06.645Z,23.30
2019-05-16T11:42:11.488Z,24.20
2019-05-16T11:47:17.180Z,26.70
2019-05-16T11:52:22.766Z,25.90
2019-05-16T11:57:28.007Z,24.70
2019-05-16T12:02:33.506Z,28.90
2019-05-16T12:07:44.336Z,23.90
2019-05-16T12:12:46.317Z,27.90
2019-05-16T12:18:00.696Z,27.40
2019-05-16T12:22:58.700Z,27.30
2019-05-16T12:28:08.143Z,26.90
2019-05-16T12:33:14.007Z,27.40
2019-05-16T12:38:19.426Z,26.20
2019-05-16T12:43:39.913Z,26.40
2019-05-16T12:48:32.018Z,27.30
2019-05-16T12:53:36.999Z,27.70
2019-05-16T12:58:42.674Z,30.70
2019-05-16T13:03:48.201Z,28.10
2019-05-16T13:08:53.724Z,27.00
2019-05-16T13:14:06.336Z,28.10
2019-05-16T13:19:06.991Z,28.80
2019-05-16T13:24:13.395Z,26.70
2019-05-16T13:29:18.345Z,28.70
2019-05-16T13:34:23.043Z,28.60
2019-05-16T13:39:28.795Z,26.60
2019-05-16T13:44:34.290Z,26.90
2019-05-16T13:49:41.106Z,28.40
2019-05-16T13:54:46.171Z,28.60
2019-05-16T13:59:51.372Z,26.60
2019-05-16T14:04:56.909Z,26.70
2019-05-16T14:10:02.490Z,28.80
2019-05-16T14:15:09.469Z,28.00
2019-05-16T14:20:18.223Z,29.40
2019-05-16T14:25:25.258Z,30.60
2019-05-16T14:30:30.710Z,28.00
2019-05-16T14:35:37.747Z,28.20
2019-05-16T14:40:43.099Z,31.00
2019-05-16T14:45:49.552Z,31.60
2019-05-16T14:50:54.261Z,32.10
2019-05-16T14:56:07.238Z,31.30
2019-05-16T15:01:13.373Z,32.00
2019-05-16T15:06:18.212Z,31.90
2019-05-16T15:11:23.250Z,32.30
2019-05-16T15:16:28.246Z,32.10
2019-05-16T15:21:32.813Z,32.30
2019-05-16T15:26:37.612Z,33.40
2019-05-16T15:31:42.041Z,33.80
2019-05-16T15:36:46.821Z,33.70
2019-05-16T15:41:52.109Z,34.20
2019-05-16T15:46:59.845Z,33.70
2019-05-16T15:52:07.349Z,34.40
2019-05-16T15:57:12.555Z,33.20
2019-05-16T16:02:17.755Z,34.40
2019-05-16T16:07:26.987Z,35.10
2019-05-16T16:12:32.325Z,35.40
2019-05-16T16:17:38.304Z,36.00
2019-05-16T16:22:46.736Z,35.90
2019-05-16T16:27:52.658Z,35.90
2019-05-16T16:32:58.663Z,35.30
2019-05-16T16:38:03.959Z,35.20
2019-05-16T16:43:09.732Z,36.40
2019-05-16T16:48:17.161Z,36.70
2019-05-16T16:53:23.095Z,36.90
2019-05-16T16:58:28.321Z,37.70
2019-05-16T17:03:33.435Z,37.90
2019-05-16T17:08:38.834Z,38.10
2019-05-16T17:13:47.058Z,38.50
2019-05-16T17:18:52.160Z,38.50
2019-05-16T17:23:58.775Z,40.00
2019-05-16T17:29:06.489Z,39.10
2019-05-16T17:34:11.806Z,39.90
2019-05-16T17:39:18.288Z,41.50
2019-05-16T17:44:23.956Z,40.70
2019-05-16T17:49:29.404Z,41.00
2019-05-16T17:54:37.137Z,42.30
2019-05-16T17:59:42.804Z,42.10
2019-05-16T18:04:48.061Z,42.30
2019-05-16T18:09:53.151Z,42.40
2019-05-16T18:14:58.357Z,42.90
2019-05-16T18:20:06.127Z,43.30
2019-05-16T18:25:10.873Z,43.70
2019-05-16T18:30:27.095Z,45.30
2019-05-16T18:35:33.743Z,44.90
2019-05-16T18:40:39.148Z,44.60
2019-05-16T18:45:44.200Z,45.60
2019-05-16T18:50:49.596Z,45.50
2019-05-16T18:55:54.244Z,45.70
2019-05-16T19:00:58.417Z,46.80
2019-05-16T19:06:03.247Z,46.50
2019-05-16T19:11:09.154Z,47.10
2019-05-16T19:16:13.588Z,47.00
2019-05-16T19:21:18.301Z,47.00
2019-05-16T19:26:22.079Z,47.60
2019-05-16T19:31:25.940Z,47.80
2019-05-16T19:36:29.506Z,48.50
2019-05-16T19:41:33.364Z,48.90
2019-05-16T19:46:38.811Z,49.30
2019-05-16T19:51:48.513Z,49.40
2019-05-16T19:56:51.973Z,50.40
2019-05-16T20:01:56.952Z,50.30
2019-05-16T20:07:02.043Z,50.30
2019-05-16T20:12:07.735Z,50.80
2019-05-16T20:17:12.254Z,50.70
2019-05-16T20:22:16.693Z,52.50
2019-05-16T20:27:21.203Z,51.10
2019-05-16T20:32:27.587Z,52.00
2019-05-16T20:37:32.827Z,52.10
2019-05-16T20:42:38.032Z,52.60
2019-05-16T20:47:43.484Z,52.70
2019-05-16T20:52:48.744Z,52.90
2019-05-16T20:57:53.947Z,53.40
2019-05-16T21:02:58.835Z,52.90
2019-05-16T21:08:06.288Z,53.50
2019-05-16T21:13:11.242Z,53.40
2019-05-16T21:18:16.726Z,54.40
2019-05-16T21:23:22.028Z,55.20
2019-05-16T21:28:27.133Z,55.40
2019-05-16T21:33:36.239Z,56.50
2019-05-16T21:38:41.481Z,56.60
2019-05-16T21:43:47.052Z,56.70
2019-05-16T21:48:52.233Z,57.20
2019-05-16T21:53:59.247Z,57.50
2019-05-16T21:59:06.932Z,58.40
2019-05-16T22:04:13.038Z,58.50
2019-05-16T22:09:18.317Z,58.80
2019-05-16T22:14:28.757Z,58.70
2019-05-16T22:19:36.117Z,59.30
2019-05-16T22:24:40.766Z,59.90
2019-05-16T22:29:45.960Z,59.90
2019-05-16T22:34:52.067Z,60.30
2019-05-16T22:39:59.625Z,60.80
2019-05-16T22:45:08.492Z,60.60
2019-05-16T22:50:13.805Z,61.90
2019-05-16T22:55:19.181Z,61.50
2019-05-16T23:00:27.828Z,62.50
2019-05-16T23:05:32.614Z,62.40
2019-05-16T23:10:37.377Z,62.50
2019-05-16T23:15:42.447Z,62.80
2019-05-16T23:20:47.516Z,63.50
2019-05-16T23:25:52.476Z,64.10
2019-05-16T23:30:57.832Z,63.20
2019-05-16T23:36:02.322Z,64.70
2019-05-16T23:41:07.459Z,64.60
2019-05-16T23:46:12.509Z,63.60
2019-05-16T23:51:16.929Z,63.60
2019-05-16T23:56:21.453Z,62.10
